createdAt,value
2023-03-27T00:00:59.431Z,2.30
2023-03-27T00:01:59.462Z,2.20
2023-03-27T00:02:59.522Z,2.10
2023-03-27T00:03:59.423Z,1.70
2023-03-27T00:04:59.394Z,1.80
2023-03-27T00:05:59.365Z,2.40
2023-03-27T00:06:59.355Z,2.50
2023-03-27T00:07:59.354Z,2.10
2023-03-27T00:08:59.328Z,2.30
2023-03-27T00:09:59.320Z,2.10
2023-03-27T00:10:59.310Z,2.60
2023-03-27T00:11:59.299Z,2.20
2023-03-27T00:12:59.311Z,1.80
2023-03-27T00:13:59.277Z,2.20
2023-03-27T00:14:59.272Z,2.90
2023-03-27T00:15:59.267Z,2.30
2023-03-27T00:16:59.286Z,2.10
2023-03-27T00:17:59.338Z,2.20
2023-03-27T00:18:59.240Z,2.20
2023-03-27T00:19:59.261Z,2.90
2023-03-27T00:20:59.222Z,2.00
2023-03-27T00:21:59.220Z,2.30
2023-03-27T00:22:59.176Z,1.70
2023-03-27T00:23:59.179Z,2.00
2023-03-27T00:24:59.172Z,2.10
2023-03-27T00:25:59.174Z,2.40
2023-03-27T00:26:59.132Z,2.00
2023-03-27T00:27:59.132Z,2.30
2023-03-27T00:28:59.118Z,1.80
2023-03-27T00:29:59.114Z,2.10
2023-03-27T00:30:59.400Z,2.20
2023-03-27T00:31:59.076Z,2.40
2023-03-27T00:32:59.121Z,2.30
2023-03-27T00:33:59.111Z,2.20
2023-03-27T00:34:59.133Z,2.30
2023-03-27T00:35:59.043Z,2.00
2023-03-27T00:36:59.017Z,2.00
2023-03-27T00:37:59.024Z,2.10
2023-03-27T00:38:59.015Z,2.10
2023-03-27T00:39:58.987Z,1.80
2023-03-27T00:40:59.324Z,2.50
2023-03-27T00:41:58.965Z,1.80
2023-03-27T00:43:06.475Z,2.10
2023-03-27T00:43:58.980Z,2.40
2023-03-27T00:44:58.938Z,2.50
2023-03-27T00:45:58.934Z,1.90
2023-03-27T00:46:58.904Z,2.20
2023-03-27T00:47:58.907Z,2.70
2023-03-27T00:48:58.881Z,2.30
2023-03-27T00:49:58.882Z,2.20
2023-03-27T00:50:58.900Z,2.30
2023-03-27T00:51:58.870Z,2.00
2023-03-27T00:52:58.850Z,2.10
2023-03-27T00:53:58.864Z,1.80
2023-03-27T00:54:58.821Z,2.50
2023-03-27T00:55:58.821Z,2.10
2023-03-27T00:56:58.823Z,2.20
2023-03-27T00:57:58.825Z,2.30
2023-03-27T00:58:58.784Z,3.00
2023-03-27T00:59:58.776Z,2.10
2023-03-27T01:00:59.088Z,1.90
2023-03-27T01:01:58.844Z,1.70
2023-03-27T01:03:01.049Z,2.50
2023-03-27T01:03:58.783Z,1.80
2023-03-27T01:04:58.702Z,2.40
2023-03-27T01:05:58.728Z,2.00
2023-03-27T01:06:58.695Z,2.20
2023-03-27T01:08:00.472Z,2.20
2023-03-27T01:08:58.695Z,2.70
2023-03-27T01:09:58.664Z,1.90
2023-03-27T01:10:58.931Z,2.10
2023-03-27T01:11:58.627Z,1.90
2023-03-27T01:12:58.611Z,2.00
2023-03-27T01:13:58.624Z,2.00
2023-03-27T01:14:58.598Z,1.90
2023-03-27T01:15:58.629Z,2.40
2023-03-27T01:16:58.577Z,2.30
2023-03-27T01:17:58.618Z,2.50
2023-03-27T01:18:58.543Z,2.00
2023-03-27T01:19:58.549Z,1.90
2023-03-27T01:20:58.534Z,1.70
2023-03-27T01:21:58.538Z,1.80
2023-03-27T01:22:58.527Z,2.10
2023-03-27T01:24:00.522Z,2.70
2023-03-27T01:24:58.504Z,1.70
2023-03-27T01:25:58.463Z,2.00
2023-03-27T01:26:58.536Z,1.70
2023-03-27T01:27:58.495Z,2.00
2023-03-27T01:28:58.430Z,2.40
2023-03-27T01:29:58.440Z,1.70
2023-03-27T01:30:58.815Z,2.50
2023-03-27T01:31:58.395Z,1.90
2023-03-27T01:32:58.463Z,2.60
2023-03-27T01:33:58.390Z,2.10
2023-03-27T01:35:01.494Z,1.90
2023-03-27T01:35:58.430Z,1.80
2023-03-27T01:36:58.338Z,1.70
2023-03-27T01:37:58.344Z,1.80
2023-03-27T01:38:58.353Z,2.10
2023-03-27T01:39:58.321Z,2.00
2023-03-27T01:40:58.541Z,2.10
2023-03-27T01:41:58.292Z,2.00
2023-03-27T01:42:58.293Z,2.20
2023-03-27T01:43:58.290Z,2.30
2023-03-27T01:44:58.281Z,2.10
2023-03-27T01:45:58.246Z,1.80
2023-03-27T01:46:58.267Z,1.80
2023-03-27T01:47:58.285Z,1.70
2023-03-27T01:48:58.236Z,1.90
2023-03-27T01:49:58.237Z,2.30
2023-03-27T01:50:58.421Z,2.50
2023-03-27T01:51:58.184Z,1.50
2023-03-27T01:52:58.181Z,2.50
2023-03-27T01:53:58.166Z,2.00
2023-03-27T01:54:58.190Z,1.90
2023-03-27T01:55:58.191Z,1.80
2023-03-27T01:56:58.167Z,1.90
2023-03-27T01:57:58.112Z,2.00
2023-03-27T01:58:58.117Z,1.80
2023-03-27T01:59:58.099Z,2.00
2023-03-27T02:00:58.137Z,2.20
2023-03-27T02:01:58.071Z,2.10
2023-03-27T02:02:58.311Z,2.00
2023-03-27T02:03:58.093Z,1.80
2023-03-27T02:04:58.115Z,2.20
2023-03-27T02:05:58.031Z,1.90
2023-03-27T02:06:58.034Z,1.90
2023-03-27T02:07:58.016Z,1.80
2023-03-27T02:08:57.997Z,2.10
2023-03-27T02:09:58.011Z,1.90
2023-03-27T02:10:58.340Z,1.80
2023-03-27T02:11:57.985Z,2.40
2023-03-27T02:12:57.955Z,3.10
2023-03-27T02:13:57.966Z,2.20
2023-03-27T02:14:57.937Z,1.90
2023-03-27T02:15:58.923Z,2.00
2023-03-27T02:16:57.905Z,2.10
2023-03-27T02:17:57.950Z,1.70
2023-03-27T02:18:57.908Z,1.80
2023-03-27T02:19:57.889Z,1.80
2023-03-27T02:20:58.033Z,2.10
2023-03-27T02:21:57.863Z,2.10
2023-03-27T02:22:57.845Z,1.90
2023-03-27T02:23:57.831Z,2.10
2023-03-27T02:24:57.812Z,1.90
2023-03-27T02:25:57.838Z,2.10
2023-03-27T02:26:57.828Z,1.90
2023-03-27T02:27:57.779Z,2.30
2023-03-27T02:28:57.789Z,1.90
2023-03-27T02:29:57.754Z,2.10
2023-03-27T02:31:05.411Z,1.60
2023-03-27T02:31:57.785Z,2.20
2023-03-27T02:32:57.755Z,2.30
2023-03-27T02:33:57.742Z,1.90
2023-03-27T02:34:57.714Z,2.00
2023-03-27T02:35:57.763Z,2.00
2023-03-27T02:36:57.747Z,2.20
2023-03-27T02:37:57.671Z,2.50
2023-03-27T02:38:57.698Z,2.00
2023-03-27T02:39:57.668Z,2.40
2023-03-27T02:40:57.803Z,2.30
2023-03-27T02:41:57.636Z,2.00
2023-03-27T02:42:57.636Z,2.70
2023-03-27T02:44:05.135Z,2.10
2023-03-27T02:44:57.589Z,1.90
2023-03-27T02:45:57.652Z,2.20
2023-03-27T02:46:57.568Z,2.50
2023-03-27T02:47:57.604Z,1.90
2023-03-27T02:48:57.559Z,1.90
2023-03-27T02:49:57.575Z,1.80
2023-03-27T02:50:57.728Z,2.30
2023-03-27T02:51:57.525Z,2.10
2023-03-27T02:52:57.507Z,2.50
2023-03-27T02:53:57.511Z,2.50
2023-03-27T02:54:57.513Z,2.70
2023-03-27T02:55:57.473Z,2.70
2023-03-27T02:56:57.489Z,2.10
2023-03-27T02:57:57.485Z,2.10
2023-03-27T02:58:57.505Z,2.10
2023-03-27T02:59:57.433Z,3.10
2023-03-27T03:00:57.607Z,1.90
2023-03-27T03:01:57.456Z,2.90
2023-03-27T03:02:57.506Z,2.50
2023-03-27T03:03:57.401Z,2.10
2023-03-27T03:04:57.396Z,2.40
2023-03-27T03:05:57.364Z,2.70
2023-03-27T03:06:57.358Z,2.30
2023-03-27T03:07:57.385Z,2.60
2023-03-27T03:08:57.361Z,3.00
2023-03-27T03:09:57.330Z,2.70
2023-03-27T03:10:57.529Z,3.00
2023-03-27T03:11:57.306Z,2.50
2023-03-27T03:12:57.316Z,2.20
2023-03-27T03:13:57.284Z,2.50
2023-03-27T03:14:57.297Z,3.20
2023-03-27T03:15:57.267Z,3.10
2023-03-27T03:16:57.358Z,2.90
2023-03-27T03:17:57.284Z,2.30
2023-03-27T03:18:57.274Z,2.70
2023-03-27T03:19:57.229Z,2.90
2023-03-27T03:20:57.316Z,2.40
2023-03-27T03:21:57.200Z,2.70
2023-03-27T03:22:57.190Z,2.40
2023-03-27T03:23:57.928Z,2.70
2023-03-27T03:24:57.194Z,2.60
2023-03-27T03:25:57.152Z,2.80
2023-03-27T03:26:57.148Z,2.60
2023-03-27T03:27:57.137Z,2.80
2023-03-27T03:29:00.852Z,2.80
2023-03-27T03:29:57.112Z,2.60
2023-03-27T03:30:57.360Z,3.20
2023-03-27T03:31:57.328Z,2.70
2023-03-27T03:32:57.150Z,2.70
2023-03-27T03:33:57.112Z,2.90
2023-03-27T03:34:57.145Z,2.40
2023-03-27T03:35:57.123Z,2.70
2023-03-27T03:36:57.052Z,3.20
2023-03-27T03:37:57.034Z,2.80
2023-03-27T03:38:57.044Z,2.90
2023-03-27T03:39:57.047Z,3.10
2023-03-27T03:40:57.154Z,2.60
2023-03-27T03:41:56.992Z,3.30
2023-03-27T03:42:56.986Z,2.60
2023-03-27T03:43:57.006Z,2.90
2023-03-27T03:44:56.965Z,3.40
2023-03-27T03:45:56.986Z,2.70
2023-03-27T03:46:56.981Z,3.30
2023-03-27T03:47:57.014Z,3.10
2023-03-27T03:48:58.943Z,3.10
2023-03-27T03:49:56.921Z,2.50
2023-03-27T03:50:57.081Z,2.90
2023-03-27T03:52:03.168Z,2.40
2023-03-27T03:52:56.886Z,2.90
2023-03-27T03:53:56.900Z,2.90
2023-03-27T03:54:56.866Z,3.40
2023-03-27T03:55:56.841Z,2.90
2023-03-27T03:56:56.870Z,3.00
2023-03-27T03:57:56.833Z,3.40
2023-03-27T03:58:56.821Z,2.50
2023-03-27T03:59:56.799Z,3.10
2023-03-27T04:00:56.946Z,3.30
2023-03-27T04:01:56.811Z,2.90
2023-03-27T04:02:56.934Z,3.20
2023-03-27T04:03:56.800Z,2.90
2023-03-27T04:04:56.799Z,3.00
2023-03-27T04:05:56.734Z,2.80
2023-03-27T04:06:56.733Z,2.90
2023-03-27T04:07:56.711Z,3.10
2023-03-27T04:08:56.709Z,3.50
2023-03-27T04:09:56.709Z,3.20
2023-03-27T04:10:56.856Z,2.70
2023-03-27T04:11:56.668Z,2.90
2023-03-27T04:12:56.695Z,2.90
2023-03-27T04:13:56.660Z,2.60
2023-03-27T04:14:56.638Z,3.10
2023-03-27T04:15:56.695Z,3.30
2023-03-27T04:16:56.614Z,2.70
2023-03-27T04:17:56.707Z,3.80
2023-03-27T04:18:56.732Z,3.80
2023-03-27T04:19:56.601Z,3.20
2023-03-27T04:20:56.702Z,3.20
2023-03-27T04:21:56.581Z,3.20
2023-03-27T04:22:56.560Z,3.40
2023-03-27T04:23:56.549Z,3.30
2023-03-27T04:24:56.544Z,3.40
2023-03-27T04:25:56.575Z,3.10
2023-03-27T04:26:56.514Z,3.60
2023-03-27T04:27:56.495Z,4.10
2023-03-27T04:28:56.509Z,3.20
2023-03-27T04:29:56.486Z,3.80
2023-03-27T04:30:56.664Z,3.50
2023-03-27T04:31:56.478Z,2.90
2023-03-27T04:32:56.487Z,3.60
2023-03-27T04:33:56.448Z,4.00
2023-03-27T04:34:56.462Z,2.80
2023-03-27T04:36:06.056Z,3.30
2023-03-27T04:36:56.419Z,3.50
2023-03-27T04:37:56.395Z,3.20
2023-03-27T04:38:56.388Z,3.90
2023-03-27T04:39:56.402Z,3.10
2023-03-27T04:40:56.573Z,3.40
2023-03-27T04:41:56.350Z,3.10
2023-03-27T04:42:56.363Z,3.20
2023-03-27T04:43:56.334Z,3.40
2023-03-27T04:45:03.848Z,3.60
2023-03-27T04:45:56.313Z,3.40
2023-03-27T04:46:56.330Z,3.20
2023-03-27T04:47:56.422Z,3.50
2023-03-27T04:48:56.281Z,3.30
2023-03-27T04:49:56.276Z,3.20
2023-03-27T04:50:56.544Z,3.00
2023-03-27T04:51:56.255Z,3.00
2023-03-27T04:52:56.278Z,3.20
2023-03-27T04:53:56.285Z,3.50
2023-03-27T04:54:56.247Z,3.10
2023-03-27T04:55:56.205Z,2.80
2023-03-27T04:56:56.241Z,3.40
2023-03-27T04:57:56.206Z,3.20
2023-03-27T04:58:56.184Z,3.30
2023-03-27T04:59:56.170Z,3.10
2023-03-27T05:00:57.027Z,3.20
2023-03-27T05:01:56.156Z,3.00
2023-03-27T05:02:56.326Z,4.00
2023-03-27T05:03:56.200Z,3.20
2023-03-27T05:04:56.150Z,3.10
2023-03-27T05:05:56.128Z,3.20
2023-03-27T05:06:56.121Z,3.10
2023-03-27T05:07:56.086Z,3.00
2023-03-27T05:08:56.067Z,3.30
2023-03-27T05:09:56.061Z,2.50
2023-03-27T05:10:56.213Z,3.20
2023-03-27T05:11:56.090Z,2.80
2023-03-27T05:12:58.272Z,3.00
2023-03-27T05:13:56.031Z,2.90
2023-03-27T05:14:56.040Z,3.30
2023-03-27T05:15:56.005Z,3.10
2023-03-27T05:16:55.979Z,3.10
2023-03-27T05:17:56.055Z,3.40
2023-03-27T05:18:55.959Z,3.30
2023-03-27T05:19:55.946Z,3.10
2023-03-27T05:20:56.182Z,3.10
2023-03-27T05:21:55.924Z,3.40
2023-03-27T05:22:55.961Z,3.20
2023-03-27T05:23:55.920Z,3.60
2023-03-27T05:24:55.947Z,3.60
2023-03-27T05:26:00.693Z,3.40
2023-03-27T05:26:55.899Z,3.20
2023-03-27T05:27:55.891Z,3.40
2023-03-27T05:28:55.863Z,3.20
2023-03-27T05:29:55.842Z,3.40
2023-03-27T05:30:56.185Z,3.40
2023-03-27T05:31:55.819Z,2.80
2023-03-27T05:32:55.895Z,3.00
2023-03-27T05:33:55.798Z,3.00
2023-03-27T05:34:55.800Z,3.40
2023-03-27T05:35:55.829Z,3.00
2023-03-27T05:36:55.774Z,2.70
2023-03-27T05:37:55.753Z,2.90
2023-03-27T05:38:55.907Z,2.60
2023-03-27T05:39:55.756Z,2.70
2023-03-27T05:40:56.615Z,3.10
2023-03-27T05:41:55.737Z,3.30
2023-03-27T05:42:55.728Z,2.80
2023-03-27T05:43:55.725Z,3.20
2023-03-27T05:44:55.695Z,3.70
2023-03-27T05:45:55.724Z,3.50
2023-03-27T05:46:55.676Z,3.20
2023-03-27T05:47:55.713Z,3.40
2023-03-27T05:48:55.689Z,3.00
2023-03-27T05:49:55.936Z,3.40
2023-03-27T05:50:55.836Z,4.40
2023-03-27T05:51:55.686Z,3.10
2023-03-27T05:52:55.693Z,3.40
2023-03-27T05:53:55.588Z,3.50
2023-03-27T05:54:55.614Z,3.70
2023-03-27T05:56:03.197Z,3.20
2023-03-27T05:56:55.639Z,3.60
2023-03-27T05:57:55.565Z,3.30
2023-03-27T05:58:55.544Z,4.30
2023-03-27T05:59:55.541Z,3.60
2023-03-27T06:00:55.731Z,3.40
2023-03-27T06:01:55.499Z,3.20
2023-03-27T06:02:55.551Z,3.50
2023-03-27T06:03:55.588Z,4.60
2023-03-27T06:04:55.474Z,4.00
2023-03-27T06:05:55.470Z,2.90
2023-03-27T06:06:55.446Z,3.00
2023-03-27T06:07:55.425Z,3.00
2023-03-27T06:08:55.417Z,3.20
2023-03-27T06:09:55.402Z,3.70
2023-03-27T06:10:55.759Z,3.60
2023-03-27T06:11:55.406Z,3.10
2023-03-27T06:12:55.370Z,3.10
2023-03-27T06:13:55.813Z,3.20
2023-03-27T06:14:55.357Z,3.10
2023-03-27T06:15:55.579Z,3.30
2023-03-27T06:16:55.353Z,3.20
2023-03-27T06:17:55.350Z,3.10
2023-03-27T06:18:55.301Z,3.40
2023-03-27T06:19:55.305Z,3.40
2023-03-27T06:20:55.554Z,3.70
2023-03-27T06:21:55.267Z,2.80
2023-03-27T06:22:55.280Z,3.10
2023-03-27T06:23:55.247Z,3.10
2023-03-27T06:24:55.293Z,3.30
2023-03-27T06:25:55.529Z,2.80
2023-03-27T06:26:55.239Z,2.90
2023-03-27T06:27:55.223Z,2.70
2023-03-27T06:28:55.193Z,2.80
2023-03-27T06:29:55.816Z,2.70
2023-03-27T06:30:55.178Z,2.30
2023-03-27T06:31:55.171Z,2.80
2023-03-27T06:32:55.212Z,2.80
2023-03-27T06:33:55.146Z,2.90
2023-03-27T06:34:55.137Z,5.40
2023-03-27T06:35:55.418Z,3.70
2023-03-27T06:36:55.123Z,3.50
2023-03-27T06:37:55.109Z,3.00
2023-03-27T06:38:55.098Z,2.50
2023-03-27T06:39:55.071Z,2.20
2023-03-27T06:40:55.309Z,3.10
2023-03-27T06:41:55.065Z,2.50
2023-03-27T06:42:55.063Z,2.50
2023-03-27T06:43:55.063Z,2.70
2023-03-27T06:44:55.042Z,2.60
2023-03-27T06:46:02.560Z,2.70
2023-03-27T06:46:55.034Z,2.30
2023-03-27T06:47:57.456Z,2.50
2023-03-27T06:48:55.003Z,2.40
2023-03-27T06:49:54.963Z,2.10
2023-03-27T06:50:55.128Z,2.40
2023-03-27T06:51:54.953Z,2.60
2023-03-27T06:52:54.925Z,2.70
2023-03-27T06:53:55.207Z,2.40
2023-03-27T06:54:54.951Z,2.40
2023-03-27T06:55:55.037Z,2.10
2023-03-27T06:56:55.011Z,3.10
2023-03-27T06:57:54.892Z,2.20
2023-03-27T06:58:54.890Z,2.50
2023-03-27T06:59:54.862Z,2.50
2023-03-27T07:00:54.861Z,2.50
2023-03-27T07:01:55.074Z,2.40
2023-03-27T07:02:54.896Z,2.70
2023-03-27T07:03:54.815Z,2.40
2023-03-27T07:05:04.336Z,2.00
2023-03-27T07:05:55.001Z,2.50
2023-03-27T07:06:54.779Z,2.50
2023-03-27T07:07:54.769Z,2.10
2023-03-27T07:08:54.802Z,2.50
2023-03-27T07:09:54.876Z,2.40
2023-03-27T07:11:54.726Z,2.30
2023-03-27T07:12:54.709Z,2.50
2023-03-27T07:13:54.727Z,2.30
2023-03-27T07:14:54.722Z,2.20
2023-03-27T07:15:54.698Z,2.20
2023-03-27T07:16:54.937Z,2.10
2023-03-27T07:17:54.754Z,1.90
2023-03-27T07:18:54.663Z,2.10
2023-03-27T07:19:54.647Z,2.50
2023-03-27T07:20:54.848Z,3.00
2023-03-27T07:21:54.662Z,2.10
2023-03-27T07:22:56.432Z,2.70
2023-03-27T07:23:54.627Z,2.30
2023-03-27T07:24:54.614Z,2.20
2023-03-27T07:25:54.714Z,1.90
2023-03-27T07:26:54.563Z,2.10
2023-03-27T07:27:54.611Z,2.60
2023-03-27T07:28:54.563Z,2.00
2023-03-27T07:29:54.533Z,1.60
2023-03-27T07:30:54.620Z,1.90
2023-03-27T07:31:58.752Z,1.80
2023-03-27T07:32:55.567Z,1.60
2023-03-27T07:33:54.659Z,1.90
2023-03-27T07:34:54.481Z,1.60
2023-03-27T07:35:54.696Z,2.10
2023-03-27T07:36:55.448Z,2.00
2023-03-27T07:37:54.457Z,2.10
2023-03-27T07:38:54.445Z,1.80
2023-03-27T07:39:54.433Z,1.90
2023-03-27T07:40:54.411Z,1.90
2023-03-27T07:41:54.415Z,2.40
2023-03-27T07:42:54.452Z,1.90
2023-03-27T07:43:54.412Z,2.30
2023-03-27T07:44:54.377Z,2.10
2023-03-27T07:45:54.441Z,2.00
2023-03-27T07:46:54.388Z,2.30
2023-03-27T07:47:54.367Z,2.00
2023-03-27T07:48:54.389Z,1.80
2023-03-27T07:49:54.364Z,1.60
2023-03-27T07:50:56.124Z,1.80
2023-03-27T07:51:54.312Z,1.50
2023-03-27T07:52:54.292Z,2.30
2023-03-27T07:53:54.283Z,2.30
2023-03-27T07:54:54.454Z,1.90
2023-03-27T07:55:54.488Z,2.00
2023-03-27T07:56:54.285Z,1.80
2023-03-27T07:58:01.777Z,2.50
2023-03-27T07:58:55.230Z,1.80
2023-03-27T07:59:54.223Z,2.10
2023-03-27T08:00:54.383Z,1.60
2023-03-27T08:01:54.197Z,1.70
2023-03-27T08:02:54.328Z,2.10
2023-03-27T08:03:54.418Z,2.10
2023-03-27T08:04:54.248Z,2.10
2023-03-27T08:05:54.439Z,1.90
2023-03-27T08:06:54.130Z,2.50
2023-03-27T08:07:54.162Z,1.90
2023-03-27T08:08:54.108Z,2.00
2023-03-27T08:09:54.098Z,2.00
2023-03-27T08:10:54.121Z,2.30
2023-03-27T08:11:54.080Z,1.90
2023-03-27T08:12:54.064Z,1.90
2023-03-27T08:13:54.084Z,2.10
2023-03-27T08:14:54.093Z,1.70
2023-03-27T08:15:54.129Z,1.70
2023-03-27T08:16:55.896Z,2.40
2023-03-27T08:17:54.041Z,1.80
2023-03-27T08:18:54.021Z,1.60
2023-03-27T08:19:54.008Z,2.00
2023-03-27T08:20:54.006Z,1.60
2023-03-27T08:21:54.034Z,2.10
2023-03-27T08:22:53.965Z,1.90
2023-03-27T08:23:55.187Z,1.70
2023-03-27T08:24:53.941Z,1.60
2023-03-27T08:25:54.165Z,2.30
2023-03-27T08:26:53.935Z,1.80
2023-03-27T08:27:53.922Z,1.70
2023-03-27T08:28:53.923Z,1.60
2023-03-27T08:29:53.881Z,1.70
2023-03-27T08:30:53.884Z,1.60
2023-03-27T08:31:53.871Z,1.50
2023-03-27T08:32:53.922Z,1.70
2023-03-27T08:33:53.838Z,1.70
2023-03-27T08:34:53.846Z,2.30
2023-03-27T08:35:53.868Z,1.40
2023-03-27T08:36:53.869Z,1.70
2023-03-27T08:37:53.816Z,1.30
2023-03-27T08:38:53.784Z,1.10
2023-03-27T08:39:53.777Z,1.80
2023-03-27T08:40:53.769Z,2.10
2023-03-27T08:41:54.432Z,1.80
2023-03-27T08:42:53.939Z,2.00
2023-03-27T08:43:53.794Z,1.70
2023-03-27T08:44:53.720Z,1.70
2023-03-27T08:45:53.787Z,1.50
2023-03-27T08:48:10.863Z,1.50
2023-03-27T08:49:10.886Z,1.50
2023-03-27T08:50:13.604Z,1.50
2023-03-27T08:51:10.960Z,1.30
2023-03-27T08:52:10.846Z,1.80
2023-03-27T08:53:10.861Z,1.80
2023-03-27T08:54:10.754Z,1.10
2023-03-27T08:55:10.758Z,1.40
2023-03-27T08:56:10.758Z,1.30
2023-03-27T08:57:11.681Z,1.70
2023-03-27T08:58:10.709Z,1.70
2023-03-27T08:59:10.717Z,1.30
2023-03-27T09:00:10.689Z,1.50
2023-03-27T09:01:10.743Z,1.40
2023-03-27T09:02:11.134Z,1.40
2023-03-27T09:03:10.888Z,1.30
2023-03-27T09:04:10.674Z,1.30
2023-03-27T09:05:10.635Z,1.30
2023-03-27T09:06:10.749Z,1.40
2023-03-27T09:07:10.635Z,1.70
2023-03-27T09:08:10.603Z,1.30
2023-03-27T09:09:10.592Z,1.50
2023-03-27T09:10:10.598Z,1.70
2023-03-27T09:11:10.604Z,1.20
2023-03-27T09:12:10.570Z,1.20
2023-03-27T09:13:11.310Z,1.40
2023-03-27T09:14:10.558Z,1.80
2023-03-27T09:15:10.549Z,1.50
2023-03-27T09:16:10.583Z,1.20
2023-03-27T09:17:10.529Z,1.50
2023-03-27T09:18:10.515Z,1.70
2023-03-27T09:19:10.489Z,1.20
2023-03-27T09:20:10.485Z,1.60
2023-03-27T09:21:10.473Z,1.10
2023-03-27T09:22:10.501Z,1.50
2023-03-27T09:23:10.440Z,1.70
2023-03-27T09:24:10.439Z,1.50
2023-03-27T09:25:10.430Z,1.30
2023-03-27T09:26:10.404Z,1.40
2023-03-27T09:27:10.408Z,1.20
2023-03-27T09:28:10.464Z,1.50
2023-03-27T09:29:10.370Z,1.30
2023-03-27T09:30:10.363Z,1.30
2023-03-27T09:31:10.394Z,1.30
2023-03-27T09:32:10.357Z,1.10
2023-03-27T09:33:10.400Z,1.50
2023-03-27T09:34:10.363Z,1.00
2023-03-27T09:35:10.303Z,1.10
2023-03-27T09:36:10.323Z,1.00
2023-03-27T09:37:10.293Z,1.10
2023-03-27T09:38:10.288Z,1.30
2023-03-27T09:39:10.271Z,1.00
2023-03-27T09:40:10.276Z,1.20
2023-03-27T09:41:10.237Z,1.00
2023-03-27T09:42:10.244Z,1.10
2023-03-27T09:43:10.213Z,1.10
2023-03-27T09:44:10.218Z,1.10
2023-03-27T09:45:10.206Z,1.10
2023-03-27T09:46:10.182Z,1.10
2023-03-27T09:47:10.310Z,1.20
2023-03-27T09:48:10.219Z,0.90
2023-03-27T09:49:10.169Z,0.90
2023-03-27T09:50:10.197Z,1.10
2023-03-27T09:51:10.133Z,0.90
2023-03-27T09:52:10.119Z,1.20
2023-03-27T09:53:10.155Z,1.20
2023-03-27T09:54:10.157Z,1.10
2023-03-27T09:55:10.320Z,1.10
2023-03-27T09:56:10.122Z,1.50
2023-03-27T09:57:10.186Z,1.00
2023-03-27T09:58:10.119Z,1.20
2023-03-27T09:59:10.154Z,1.00
2023-03-27T10:00:10.245Z,1.30
2023-03-27T10:01:10.082Z,0.80
2023-03-27T10:02:10.100Z,1.00
2023-03-27T10:03:10.273Z,1.10
2023-03-27T10:04:10.058Z,1.30
2023-03-27T10:05:10.036Z,1.00
2023-03-27T10:06:09.987Z,1.00
2023-03-27T10:07:09.967Z,1.30
2023-03-27T10:08:09.944Z,0.90
2023-03-27T10:09:09.940Z,0.90
2023-03-27T10:10:09.941Z,1.00
2023-03-27T10:11:09.920Z,1.00
2023-03-27T10:12:09.900Z,1.30
2023-03-27T10:13:09.927Z,0.80
2023-03-27T10:14:09.901Z,1.10
2023-03-27T10:15:09.887Z,0.90
2023-03-27T10:16:09.877Z,1.20
2023-03-27T10:17:09.910Z,1.20
2023-03-27T10:18:10.482Z,0.90
2023-03-27T10:19:09.822Z,1.10
2023-03-27T10:20:09.849Z,1.30
2023-03-27T10:21:09.831Z,1.20
2023-03-27T10:22:14.152Z,1.30
2023-03-27T10:23:09.827Z,1.10
2023-03-27T10:24:09.765Z,0.80
2023-03-27T10:25:09.754Z,1.10
2023-03-27T10:26:09.772Z,1.00
2023-03-27T10:27:09.751Z,1.00
2023-03-27T10:28:09.733Z,1.20
2023-03-27T10:29:09.775Z,1.10
2023-03-27T10:30:09.727Z,0.90
2023-03-27T10:31:09.683Z,1.40
2023-03-27T10:32:09.763Z,1.20
2023-03-27T10:33:09.722Z,0.90
2023-03-27T10:34:09.687Z,0.90
2023-03-27T10:35:09.650Z,0.90
2023-03-27T10:36:09.656Z,0.90
2023-03-27T10:37:10.116Z,0.90
2023-03-27T10:38:09.775Z,0.80
2023-03-27T10:39:09.602Z,1.00
2023-03-27T10:40:09.591Z,0.70
2023-03-27T10:41:09.573Z,1.00
2023-03-27T10:42:09.603Z,0.90
2023-03-27T10:43:11.077Z,0.80
2023-03-27T10:44:09.545Z,1.10
2023-03-27T10:45:09.546Z,1.00
2023-03-27T10:46:09.574Z,1.10
2023-03-27T10:47:09.568Z,1.20
2023-03-27T10:48:17.718Z,1.00
2023-03-27T10:49:09.553Z,1.00
2023-03-27T10:50:09.480Z,1.20
2023-03-27T10:51:09.519Z,1.00
2023-03-27T10:52:09.463Z,1.00
2023-03-27T10:53:09.555Z,0.90
2023-03-27T10:54:09.455Z,1.20
2023-03-27T10:55:09.419Z,1.20
2023-03-27T10:56:09.428Z,1.00
2023-03-27T10:57:09.534Z,1.10
2023-03-27T10:58:09.420Z,0.90
2023-03-27T10:59:09.399Z,1.10
2023-03-27T11:00:09.366Z,1.30
2023-03-27T11:01:09.402Z,1.00
2023-03-27T11:02:10.046Z,1.20
2023-03-27T11:03:09.399Z,0.90
2023-03-27T11:04:09.355Z,1.30
2023-03-27T11:05:09.362Z,0.90
2023-03-27T11:06:09.325Z,0.70
2023-03-27T11:07:09.288Z,1.00
2023-03-27T11:08:09.376Z,0.90
2023-03-27T11:09:09.280Z,0.90
2023-03-27T11:10:09.284Z,0.80
2023-03-27T11:11:09.246Z,1.30
2023-03-27T11:12:09.252Z,0.90
2023-03-27T11:13:09.222Z,1.10
2023-03-27T11:14:09.302Z,0.90
2023-03-27T11:15:09.208Z,1.10
2023-03-27T11:16:09.257Z,1.10
2023-03-27T11:17:09.272Z,0.90
2023-03-27T11:18:09.214Z,1.00
2023-03-27T11:19:09.173Z,1.00
2023-03-27T11:20:09.157Z,1.10
2023-03-27T11:21:09.133Z,0.90
2023-03-27T11:22:09.111Z,0.80
2023-03-27T11:23:09.323Z,0.80
2023-03-27T11:24:09.088Z,0.80
2023-03-27T11:25:09.075Z,0.90
2023-03-27T11:26:09.065Z,1.10
2023-03-27T11:27:09.993Z,1.20
2023-03-27T11:28:09.049Z,1.00
2023-03-27T11:29:09.042Z,1.10
2023-03-27T11:30:09.059Z,1.00
2023-03-27T11:31:11.585Z,1.30
2023-03-27T11:32:08.998Z,1.10
2023-03-27T11:33:09.020Z,1.70
2023-03-27T11:34:08.994Z,1.30
2023-03-27T11:35:08.981Z,1.00
2023-03-27T11:36:09.002Z,0.90
2023-03-27T11:37:08.944Z,1.00
2023-03-27T11:38:08.963Z,1.20
2023-03-27T11:39:08.947Z,1.10
2023-03-27T11:40:08.924Z,1.00
2023-03-27T11:41:08.900Z,0.90
2023-03-27T11:42:08.904Z,1.10
2023-03-27T11:43:08.892Z,1.10
2023-03-27T11:44:08.877Z,1.10
2023-03-27T11:45:08.870Z,0.90
2023-03-27T11:46:08.972Z,0.90
2023-03-27T11:47:08.863Z,1.20
2023-03-27T11:48:11.039Z,1.00
2023-03-27T11:49:08.821Z,0.90
2023-03-27T11:50:08.815Z,0.80
2023-03-27T11:51:08.792Z,1.00
2023-03-27T11:52:08.803Z,0.90
2023-03-27T11:53:08.779Z,1.10
2023-03-27T11:54:08.771Z,1.20
2023-03-27T11:55:08.757Z,1.20
2023-03-27T11:56:08.764Z,0.90
2023-03-27T11:57:08.799Z,1.10
2023-03-27T11:58:08.749Z,1.00
2023-03-27T11:59:08.741Z,1.50
2023-03-27T12:00:08.695Z,0.90
2023-03-27T12:01:08.695Z,1.00
2023-03-27T12:02:08.792Z,0.80
2023-03-27T12:03:08.781Z,0.90
2023-03-27T12:04:08.695Z,0.90
2023-03-27T12:05:08.673Z,0.70
2023-03-27T12:06:08.657Z,0.80
2023-03-27T12:07:11.932Z,0.90
2023-03-27T12:08:08.662Z,0.90
2023-03-27T12:09:08.602Z,0.80
2023-03-27T12:10:08.592Z,1.00
2023-03-27T12:11:08.572Z,1.00
2023-03-27T12:12:08.575Z,0.90
2023-03-27T12:13:08.551Z,0.80
2023-03-27T12:14:17.747Z,0.70
2023-03-27T12:15:09.669Z,0.90
2023-03-27T12:16:08.595Z,0.80
2023-03-27T12:17:08.536Z,0.90
2023-03-27T12:18:08.730Z,0.80
2023-03-27T12:19:21.237Z,0.80
2023-03-27T12:20:08.508Z,1.10
2023-03-27T12:21:08.463Z,1.00
2023-03-27T12:22:21.134Z,0.80
2023-03-27T12:23:08.474Z,0.80
2023-03-27T12:24:08.435Z,0.70
2023-03-27T12:25:08.442Z,0.80
2023-03-27T12:26:08.432Z,0.80
2023-03-27T12:27:08.399Z,0.80
2023-03-27T12:28:08.395Z,0.80
2023-03-27T12:29:23.056Z,0.70
2023-03-27T12:30:08.461Z,0.70
2023-03-27T12:31:08.457Z,0.70
2023-03-27T12:32:08.496Z,0.80
2023-03-27T12:33:08.445Z,0.70
2023-03-27T12:34:08.341Z,0.90
2023-03-27T12:35:08.328Z,0.80
2023-03-27T12:36:08.332Z,0.90
2023-03-27T12:37:08.281Z,0.80
2023-03-27T12:38:08.301Z,0.90
2023-03-27T12:39:08.298Z,0.80
2023-03-27T12:40:08.342Z,0.80
2023-03-27T12:41:08.245Z,0.60
2023-03-27T12:42:08.229Z,1.10
2023-03-27T12:43:08.215Z,0.70
2023-03-27T12:44:08.208Z,0.80
2023-03-27T12:45:08.216Z,0.80
2023-03-27T12:46:08.197Z,0.70
2023-03-27T12:47:09.147Z,0.80
2023-03-27T12:48:08.186Z,0.70
2023-03-27T12:49:15.685Z,0.80
2023-03-27T12:50:08.142Z,0.60
2023-03-27T12:51:08.124Z,1.00
2023-03-27T12:52:08.132Z,0.60
2023-03-27T12:53:08.113Z,0.90
2023-03-27T12:54:08.109Z,1.20
2023-03-27T12:55:08.084Z,0.70
2023-03-27T12:56:08.088Z,0.90
2023-03-27T12:57:08.241Z,0.70
2023-03-27T12:58:08.219Z,0.80
2023-03-27T12:59:08.066Z,0.80
2023-03-27T13:00:08.077Z,0.80
2023-03-27T13:01:08.068Z,0.80
2023-03-27T13:02:08.109Z,0.60
2023-03-27T13:03:08.185Z,0.60
2023-03-27T13:04:08.053Z,0.70
2023-03-27T13:05:16.476Z,0.60
2023-03-27T13:06:08.968Z,0.80
2023-03-27T13:07:07.958Z,0.80
2023-03-27T13:08:07.967Z,1.10
2023-03-27T13:09:07.940Z,0.70
2023-03-27T13:10:07.944Z,0.80
2023-03-27T13:11:07.908Z,0.90
2023-03-27T13:12:07.902Z,0.90
2023-03-27T13:13:07.890Z,0.80
2023-03-27T13:14:07.900Z,1.00
2023-03-27T13:15:07.866Z,0.70
2023-03-27T13:16:07.877Z,0.80
2023-03-27T13:17:07.860Z,0.80
2023-03-27T13:18:07.872Z,0.90
2023-03-27T13:19:07.828Z,0.70
2023-03-27T13:20:07.813Z,0.80
2023-03-27T13:21:07.845Z,0.80